sensor_id;sensor_type;location;lat;lon;timestamp;pressure;altitude;pressure_sealevel;temperature;humidity
43480;BME280;29067;35.492;-97.520;2023-04-25T00:02:25;97180.89;;;12.06;33.63
43480;BME280;29067;35.492;-97.520;2023-04-25T00:04:54;97176.41;;;10.95;34.22
43480;BME280;29067;35.492;-97.520;2023-04-25T00:07:22;97165.18;;;12.29;33.32
43480;BME280;29067;35.492;-97.520;2023-04-25T00:09:50;97163.89;;;11.72;34.90
43480;BME280;29067;35.492;-97.520;2023-04-25T00:12:19;97159.30;;;11.26;34.29
43480;BME280;29067;35.492;-97.520;2023-04-25T00:14:48;97158.55;;;11.96;34.20
43480;BME280;29067;35.492;-97.520;2023-04-25T00:17:16;97164.52;;;11.91;34.35
43480;BME280;29067;35.492;-97.520;2023-04-25T00:19:43;97170.10;;;12.13;33.65
43480;BME280;29067;35.492;-97.520;2023-04-25T00:22:11;97175.41;;;12.68;32.83
43480;BME280;29067;35.492;-97.520;2023-04-25T00:24:39;97176.05;;;12.62;33.24
43480;BME280;29067;35.492;-97.520;2023-04-25T00:27:08;97178.83;;;12.52;33.36
43480;BME280;29067;35.492;-97.520;2023-04-25T00:29:36;97173.57;;;11.03;34.48
43480;BME280;29067;35.492;-97.520;2023-04-25T00:32:14;97171.14;;;9.98;35.57
43480;BME280;29067;35.492;-97.520;2023-04-25T00:34:42;97167.84;;;11.03;35.82
43480;BME280;29067;35.492;-97.520;2023-04-25T00:37:10;97169.32;;;10.63;36.16
43480;BME280;29067;35.492;-97.520;2023-04-25T00:39:39;97166.80;;;9.63;36.62
43480;BME280;29067;35.492;-97.520;2023-04-25T00:42:08;97162.76;;;10.60;36.36
43480;BME280;29067;35.492;-97.520;2023-04-25T00:44:36;97170.83;;;10.11;36.88
43480;BME280;29067;35.492;-97.520;2023-04-25T00:47:05;97169.10;;;11.13;36.59
43480;BME280;29067;35.492;-97.520;2023-04-25T00:49:33;97175.54;;;9.52;38.18
43480;BME280;29067;35.492;-97.520;2023-04-25T00:52:02;97172.29;;;10.82;36.67
43480;BME280;29067;35.492;-97.520;2023-04-25T00:54:30;97164.35;;;11.66;36.24
43480;BME280;29067;35.492;-97.520;2023-04-25T00:56:59;97166.68;;;10.78;37.00
43480;BME280;29067;35.492;-97.520;2023-04-25T00:59:28;97171.31;;;11.05;37.08
43480;BME280;29067;35.492;-97.520;2023-04-25T01:02:02;97177.81;;;11.07;37.12
43480;BME280;29067;35.492;-97.520;2023-04-25T01:04:30;97187.11;;;9.44;38.99
43480;BME280;29067;35.492;-97.520;2023-04-25T01:06:58;97184.53;;;10.34;38.63
43480;BME280;29067;35.492;-97.520;2023-04-25T01:09:26;97193.35;;;8.67;40.34
43480;BME280;29067;35.492;-97.520;2023-04-25T01:11:56;97196.74;;;9.40;39.96
43480;BME280;29067;35.492;-97.520;2023-04-25T01:14:24;97203.32;;;9.83;38.98
43480;BME280;29067;35.492;-97.520;2023-04-25T01:16:52;97207.23;;;9.93;38.53
43480;BME280;29067;35.492;-97.520;2023-04-25T01:19:20;97204.62;;;8.55;39.56
43480;BME280;29067;35.492;-97.520;2023-04-25T01:21:48;97207.72;;;9.01;39.64
43480;BME280;29067;35.492;-97.520;2023-04-25T01:24:16;97208.63;;;9.69;39.56
43480;BME280;29067;35.492;-97.520;2023-04-25T01:26:50;97210.10;;;7.94;41.41
43480;BME280;29067;35.492;-97.520;2023-04-25T01:29:19;97200.27;;;9.67;40.24
43480;BME280;29067;35.492;-97.520;2023-04-25T01:31:47;97199.86;;;9.14;40.38
43480;BME280;29067;35.492;-97.520;2023-04-25T01:34:16;97205.25;;;8.41;41.76
43480;BME280;29067;35.492;-97.520;2023-04-25T01:36:44;97206.01;;;7.90;41.37
43480;BME280;29067;35.492;-97.520;2023-04-25T01:39:12;97207.03;;;8.25;42.09
43480;BME280;29067;35.492;-97.520;2023-04-25T01:41:39;97205.85;;;9.14;40.75
43480;BME280;29067;35.492;-97.520;2023-04-25T01:44:07;97213.14;;;8.80;40.93
43480;BME280;29067;35.492;-97.520;2023-04-25T01:46:35;97210.52;;;10.22;39.86
43480;BME280;29067;35.492;-97.520;2023-04-25T01:49:03;97212.50;;;9.39;40.47
43480;BME280;29067;35.492;-97.520;2023-04-25T01:51:31;97217.80;;;9.45;40.36
43480;BME280;29067;35.492;-97.520;2023-04-25T01:54:00;97226.58;;;9.69;40.40
43480;BME280;29067;35.492;-97.520;2023-04-25T01:56:31;97230.59;;;9.12;41.27
43480;BME280;29067;35.492;-97.520;2023-04-25T01:59:00;97230.75;;;10.52;40.04
43480;BME280;29067;35.492;-97.520;2023-04-25T02:01:28;97240.67;;;10.04;41.24
43480;BME280;29067;35.492;-97.520;2023-04-25T02:03:57;97237.04;;;10.52;40.66
43480;BME280;29067;35.492;-97.520;2023-04-25T02:06:25;97240.09;;;9.39;41.55
43480;BME280;29067;35.492;-97.520;2023-04-25T02:08:52;97236.26;;;9.95;40.59
43480;BME280;29067;35.492;-97.520;2023-04-25T02:11:20;97242.74;;;10.22;40.89
43480;BME280;29067;35.492;-97.520;2023-04-25T02:13:48;97243.29;;;9.86;40.97
43480;BME280;29067;35.492;-97.520;2023-04-25T02:16:16;97240.67;;;10.73;39.93
43480;BME280;29067;35.492;-97.520;2023-04-25T02:18:44;97248.76;;;10.31;40.87
43480;BME280;29067;35.492;-97.520;2023-04-25T02:21:16;97250.93;;;10.96;39.79
43480;BME280;29067;35.492;-97.520;2023-04-25T02:23:45;97263.94;;;8.41;42.47
43480;BME280;29067;35.492;-97.520;2023-04-25T02:26:12;97264.14;;;10.35;40.58
43480;BME280;29067;35.492;-97.520;2023-04-25T02:28:40;97271.27;;;11.00;40.05
43480;BME280;29067;35.492;-97.520;2023-04-25T02:31:08;97272.95;;;9.68;40.92
43480;BME280;29067;35.492;-97.520;2023-04-25T02:33:37;97279.65;;;9.46;41.17
43480;BME280;29067;35.492;-97.520;2023-04-25T02:36:05;97278.75;;;11.04;40.23
43480;BME280;29067;35.492;-97.520;2023-04-25T02:38:33;97280.41;;;9.91;41.43
43480;BME280;29067;35.492;-97.520;2023-04-25T02:41:01;97278.04;;;10.31;41.17
43480;BME280;29067;35.492;-97.520;2023-04-25T02:43:35;97277.42;;;9.85;41.30
43480;BME280;29067;35.492;-97.520;2023-04-25T02:46:07;97276.58;;;10.48;40.67
43480;BME280;29067;35.492;-97.520;2023-04-25T02:48:40;97280.42;;;10.05;40.99
43480;BME280;29067;35.492;-97.520;2023-04-25T02:51:13;97280.48;;;10.02;41.29
43480;BME280;29067;35.492;-97.520;2023-04-25T02:53:42;97283.07;;;10.45;41.34
43480;BME280;29067;35.492;-97.520;2023-04-25T02:56:10;97284.09;;;10.11;41.91
43480;BME280;29067;35.492;-97.520;2023-04-25T02:58:38;97287.25;;;11.40;41.42
43480;BME280;29067;35.492;-97.520;2023-04-25T03:01:06;97291.76;;;12.21;40.25
43480;BME280;29067;35.492;-97.520;2023-04-25T03:03:34;97293.72;;;11.90;40.14
43480;BME280;29067;35.492;-97.520;2023-04-25T03:06:02;97298.23;;;12.35;40.08
43480;BME280;29067;35.492;-97.520;2023-04-25T03:08:29;97300.88;;;11.36;40.95
43480;BME280;29067;35.492;-97.520;2023-04-25T03:10:57;97298.76;;;9.67;43.40
43480;BME280;29067;35.492;-97.520;2023-04-25T03:13:25;97296.61;;;10.12;44.38
43480;BME280;29067;35.492;-97.520;2023-04-25T03:15:53;97301.99;;;9.99;45.22
43480;BME280;29067;35.492;-97.520;2023-04-25T03:18:28;97308.16;;;10.10;44.68
43480;BME280;29067;35.492;-97.520;2023-04-25T03:20:56;97310.47;;;9.09;45.93
43480;BME280;29067;35.492;-97.520;2023-04-25T03:23:23;97313.81;;;9.71;44.96
43480;BME280;29067;35.492;-97.520;2023-04-25T03:25:52;97319.53;;;9.91;45.61
43480;BME280;29067;35.492;-97.520;2023-04-25T03:28:19;97322.85;;;9.78;45.38
43480;BME280;29067;35.492;-97.520;2023-04-25T03:30:47;97323.27;;;9.60;45.68
43480;BME280;29067;35.492;-97.520;2023-04-25T03:33:23;97321.45;;;10.20;45.21
43480;BME280;29067;35.492;-97.520;2023-04-25T03:35:51;97323.25;;;9.49;45.71
43480;BME280;29067;35.492;-97.520;2023-04-25T03:38:19;97324.27;;;11.11;44.38
43480;BME280;29067;35.492;-97.520;2023-04-25T03:40:46;97326.34;;;11.25;43.96
43480;BME280;29067;35.492;-97.520;2023-04-25T03:43:14;97323.06;;;11.55;45.60
43480;BME280;29067;35.492;-97.520;2023-04-25T03:45:42;97322.97;;;10.72;45.39
43480;BME280;29067;35.492;-97.520;2023-04-25T03:48:10;97327.88;;;11.02;46.08
43480;BME280;29067;35.492;-97.520;2023-04-25T03:50:39;97332.57;;;11.16;44.58
43480;BME280;29067;35.492;-97.520;2023-04-25T03:53:07;97338.35;;;10.85;44.77
43480;BME280;29067;35.492;-97.520;2023-04-25T03:55:35;97337.37;;;11.25;44.96
43480;BME280;29067;35.492;-97.520;2023-04-25T03:58:03;97331.28;;;12.28;43.78
43480;BME280;29067;35.492;-97.520;2023-04-25T04:00:31;97328.15;;;12.01;44.36
43480;BME280;29067;35.492;-97.520;2023-04-25T04:02:59;97333.81;;;10.93;45.12
43480;BME280;29067;35.492;-97.520;2023-04-25T04:05:26;97337.41;;;11.09;45.59
43480;BME280;29067;35.492;-97.520;2023-04-25T04:07:54;97345.30;;;11.41;44.52
43480;BME280;29067;35.492;-97.520;2023-04-25T04:10:22;97339.46;;;12.08;43.97
43480;BME280;29067;35.492;-97.520;2023-04-25T04:12:50;97344.95;;;12.22;43.69
43480;BME280;29067;35.492;-97.520;2023-04-25T04:15:19;97357.14;;;10.98;45.14
43480;BME280;29067;35.492;-97.520;2023-04-25T04:17:48;97360.79;;;11.87;44.63
43480;BME280;29067;35.492;-97.520;2023-04-25T04:20:16;97356.45;;;12.00;44.02
43480;BME280;29067;35.492;-97.520;2023-04-25T04:22:44;97352.65;;;11.24;43.69
43480;BME280;29067;35.492;-97.520;2023-04-25T04:25:12;97353.39;;;11.67;43.82
43480;BME280;29067;35.492;-97.520;2023-04-25T04:27:39;97349.94;;;11.25;44.28
43480;BME280;29067;35.492;-97.520;2023-04-25T04:30:08;97343.62;;;10.50;45.62
43480;BME280;29067;35.492;-97.520;2023-04-25T04:32:36;97339.73;;;10.84;45.22
43480;BME280;29067;35.492;-97.520;2023-04-25T04:35:10;97350.71;;;7.19;50.38
43480;BME280;29067;35.492;-97.520;2023-04-25T04:37:38;97342.49;;;9.49;48.74
43480;BME280;29067;35.492;-97.520;2023-04-25T04:40:07;97334.82;;;10.54;46.80
43480;BME280;29067;35.492;-97.520;2023-04-25T04:42:35;97328.36;;;10.51;46.10
43480;BME280;29067;35.492;-97.520;2023-04-25T04:45:03;97325.12;;;10.60;46.08
43480;BME280;29067;35.492;-97.520;2023-04-25T04:47:32;97328.30;;;11.24;45.28
43480;BME280;29067;35.492;-97.520;2023-04-25T04:50:00;97331.20;;;9.97;46.70
43480;BME280;29067;35.492;-97.520;2023-04-25T04:52:28;97340.85;;;9.36;47.92
43480;BME280;29067;35.492;-97.520;2023-04-25T04:54:55;97324.29;;;10.97;46.09
43480;BME280;29067;35.492;-97.520;2023-04-25T04:57:23;97322.66;;;11.00;45.68
43480;BME280;29067;35.492;-97.520;2023-04-25T04:59:51;97312.27;;;11.25;44.97
43480;BME280;29067;35.492;-97.520;2023-04-25T05:02:19;97314.61;;;10.41;45.97
43480;BME280;29067;35.492;-97.520;2023-04-25T05:04:47;97314.64;;;8.36;49.08
43480;BME280;29067;35.492;-97.520;2023-04-25T05:07:15;97305.51;;;9.98;47.37
43480;BME280;29067;35.492;-97.520;2023-04-25T05:09:43;97294.27;;;9.00;48.57
43480;BME280;29067;35.492;-97.520;2023-04-25T05:12:11;97292.76;;;9.00;48.68
43480;BME280;29067;35.492;-97.520;2023-04-25T05:14:38;97283.74;;;9.47;48.83
43480;BME280;29067;35.492;-97.520;2023-04-25T05:17:07;97280.12;;;8.83;49.76
43480;BME280;29067;35.492;-97.520;2023-04-25T05:19:35;97279.38;;;9.46;48.83
43480;BME280;29067;35.492;-97.520;2023-04-25T05:22:03;97287.70;;;7.47;51.33
43480;BME280;29067;35.492;-97.520;2023-04-25T05:24:31;97277.17;;;9.41;50.56
43480;BME280;29067;35.492;-97.520;2023-04-25T05:27:00;97279.37;;;9.31;50.91
43480;BME280;29067;35.492;-97.520;2023-04-25T05:29:28;97280.50;;;9.26;49.66
43480;BME280;29067;35.492;-97.520;2023-04-25T05:31:55;97285.28;;;9.76;48.94
43480;BME280;29067;35.492;-97.520;2023-04-25T05:34:23;97284.49;;;9.51;49.19
43480;BME280;29067;35.492;-97.520;2023-04-25T05:36:52;97288.30;;;10.16;48.33
43480;BME280;29067;35.492;-97.520;2023-04-25T05:39:20;97291.67;;;10.23;48.51
43480;BME280;29067;35.492;-97.520;2023-04-25T05:41:48;97296.25;;;9.15;49.03
43480;BME280;29067;35.492;-97.520;2023-04-25T05:44:16;97293.77;;;9.98;48.99
43480;BME280;29067;35.492;-97.520;2023-04-25T05:46:44;97285.10;;;10.19;47.48
43480;BME280;29067;35.492;-97.520;2023-04-25T05:49:12;97279.75;;;10.47;47.53
43480;BME280;29067;35.492;-97.520;2023-04-25T05:51:40;97278.22;;;9.87;49.22
43480;BME280;29067;35.492;-97.520;2023-04-25T05:54:08;97276.90;;;9.76;49.37
43480;BME280;29067;35.492;-97.520;2023-04-25T05:56:46;97272.66;;;10.57;48.37
43480;BME280;29067;35.492;-97.520;2023-04-25T05:59:14;97273.14;;;9.06;50.90
43480;BME280;29067;35.492;-97.520;2023-04-25T06:01:42;97270.33;;;9.04;50.40
43480;BME280;29067;35.492;-97.520;2023-04-25T06:04:10;97263.15;;;9.49;49.71
43480;BME280;29067;35.492;-97.520;2023-04-25T06:06:38;97263.61;;;9.66;49.41
43480;BME280;29067;35.492;-97.520;2023-04-25T06:09:06;97269.26;;;7.66;51.92
43480;BME280;29067;35.492;-97.520;2023-04-25T06:11:34;97262.89;;;9.54;49.66
43480;BME280;29067;35.492;-97.520;2023-04-25T06:14:02;97259.52;;;8.30;51.73
43480;BME280;29067;35.492;-97.520;2023-04-25T06:16:30;97251.51;;;8.63;51.07
43480;BME280;29067;35.492;-97.520;2023-04-25T06:18:58;97251.40;;;8.61;51.38
43480;BME280;29067;35.492;-97.520;2023-04-25T06:21:26;97253.63;;;9.39;50.32
43480;BME280;29067;35.492;-97.520;2023-04-25T06:23:53;97266.39;;;8.58;51.21
43480;BME280;29067;35.492;-97.520;2023-04-25T06:26:22;97266.10;;;8.51;51.25
43480;BME280;29067;35.492;-97.520;2023-04-25T06:28:50;97267.24;;;9.00;50.96
43480;BME280;29067;35.492;-97.520;2023-04-25T06:31:18;97275.82;;;7.07;53.85
43480;BME280;29067;35.492;-97.520;2023-04-25T06:33:45;97260.60;;;8.04;53.80
43480;BME280;29067;35.492;-97.520;2023-04-25T06:36:13;97259.12;;;8.39;51.63
43480;BME280;29067;35.492;-97.520;2023-04-25T06:38:42;97264.04;;;8.58;52.55
43480;BME280;29067;35.492;-97.520;2023-04-25T06:41:10;97266.04;;;8.54;52.82
43480;BME280;29067;35.492;-97.520;2023-04-25T06:43:38;97264.14;;;9.42;51.23
43480;BME280;29067;35.492;-97.520;2023-04-25T06:46:06;97260.50;;;8.04;53.34
43480;BME280;29067;35.492;-97.520;2023-04-25T06:48:34;97249.49;;;9.79;50.85
43480;BME280;29067;35.492;-97.520;2023-04-25T06:51:02;97253.35;;;8.99;51.57
43480;BME280;29067;35.492;-97.520;2023-04-25T06:53:30;97252.92;;;8.99;51.71
43480;BME280;29067;35.492;-97.520;2023-04-25T06:55:58;97242.46;;;9.48;49.71
43480;BME280;29067;35.492;-97.520;2023-04-25T06:58:26;97243.68;;;9.17;50.74
43480;BME280;29067;35.492;-97.520;2023-04-25T07:00:54;97241.53;;;9.42;50.25
43480;BME280;29067;35.492;-97.520;2023-04-25T07:03:22;97235.16;;;8.79;51.05
43480;BME280;29067;35.492;-97.520;2023-04-25T07:05:50;97230.28;;;8.90;51.75
43480;BME280;29067;35.492;-97.520;2023-04-25T07:08:18;97240.54;;;8.82;51.82
43480;BME280;29067;35.492;-97.520;2023-04-25T07:10:46;97234.46;;;9.44;51.74
43480;BME280;29067;35.492;-97.520;2023-04-25T07:13:14;97236.05;;;9.56;50.71
43480;BME280;29067;35.492;-97.520;2023-04-25T07:15:42;97236.49;;;9.98;50.29
43480;BME280;29067;35.492;-97.520;2023-04-25T07:18:11;97233.30;;;10.47;50.01
43480;BME280;29067;35.492;-97.520;2023-04-25T07:20:39;97240.82;;;9.26;50.71
43480;BME280;29067;35.492;-97.520;2023-04-25T07:23:06;97244.52;;;10.47;50.27
43480;BME280;29067;35.492;-97.520;2023-04-25T07:25:34;97243.01;;;10.08;50.88
43480;BME280;29067;35.492;-97.520;2023-04-25T07:28:02;97239.64;;;9.41;52.23
43480;BME280;29067;35.492;-97.520;2023-04-25T07:30:30;97234.96;;;9.01;53.11
43480;BME280;29067;35.492;-97.520;2023-04-25T07:32:59;97235.08;;;8.39;54.85
43480;BME280;29067;35.492;-97.520;2023-04-25T07:35:27;97231.31;;;8.37;55.43
43480;BME280;29067;35.492;-97.520;2023-04-25T07:37:54;97226.04;;;8.83;55.23
43480;BME280;29067;35.492;-97.520;2023-04-25T07:40:23;97224.15;;;9.27;54.78
43480;BME280;29067;35.492;-97.520;2023-04-25T07:42:52;97227.67;;;9.08;55.39
43480;BME280;29067;35.492;-97.520;2023-04-25T07:45:20;97222.29;;;9.31;55.18
43480;BME280;29067;35.492;-97.520;2023-04-25T07:47:47;97220.24;;;9.76;54.56
43480;BME280;29067;35.492;-97.520;2023-04-25T07:50:15;97221.19;;;8.60;56.65
43480;BME280;29067;35.492;-97.520;2023-04-25T07:52:43;97216.97;;;9.27;55.95
43480;BME280;29067;35.492;-97.520;2023-04-25T07:55:11;97220.34;;;7.59;60.81
43480;BME280;29067;35.492;-97.520;2023-04-25T07:57:39;97218.71;;;8.38;58.56
43480;BME280;29067;35.492;-97.520;2023-04-25T08:00:08;97220.10;;;7.18;61.06
43480;BME280;29067;35.492;-97.520;2023-04-25T08:02:38;97224.41;;;6.38;66.10
43480;BME280;29067;35.492;-97.520;2023-04-25T08:05:06;97218.21;;;8.57;62.43
43480;BME280;29067;35.492;-97.520;2023-04-25T08:07:35;97219.23;;;8.20;61.47
43480;BME280;29067;35.492;-97.520;2023-04-25T08:10:03;97212.32;;;8.72;60.95
43480;BME280;29067;35.492;-97.520;2023-04-25T08:12:31;97210.66;;;8.59;61.97
43480;BME280;29067;35.492;-97.520;2023-04-25T08:14:59;97202.56;;;8.27;62.65
43480;BME280;29067;35.492;-97.520;2023-04-25T08:17:27;97201.51;;;6.48;66.19
43480;BME280;29067;35.492;-97.520;2023-04-25T08:19:55;97195.06;;;7.56;65.82
43480;BME280;29067;35.492;-97.520;2023-04-25T08:22:23;97198.31;;;7.68;65.07
43480;BME280;29067;35.492;-97.520;2023-04-25T08:24:51;97197.02;;;7.95;64.62
43480;BME280;29067;35.492;-97.520;2023-04-25T08:27:19;97197.72;;;7.62;65.10
43480;BME280;29067;35.492;-97.520;2023-04-25T08:29:46;97199.51;;;8.83;62.76
43480;BME280;29067;35.492;-97.520;2023-04-25T08:32:15;97199.22;;;7.78;64.98
43480;BME280;29067;35.492;-97.520;2023-04-25T08:34:43;97198.19;;;7.74;64.12
43480;BME280;29067;35.492;-97.520;2023-04-25T08:37:11;97201.16;;;7.39;66.51
43480;BME280;29067;35.492;-97.520;2023-04-25T08:39:39;97197.85;;;8.40;64.25
43480;BME280;29067;35.492;-97.520;2023-04-25T08:42:07;97201.79;;;6.51;69.12
43480;BME280;29067;35.492;-97.520;2023-04-25T08:44:35;97205.61;;;6.12;69.39
43480;BME280;29067;35.492;-97.520;2023-04-25T08:47:05;97206.26;;;8.17;64.50
43480;BME280;29067;35.492;-97.520;2023-04-25T08:49:34;97214.27;;;7.06;67.07
43480;BME280;29067;35.492;-97.520;2023-04-25T08:52:04;97216.50;;;7.71;65.51
43480;BME280;29067;35.492;-97.520;2023-04-25T08:54:32;97215.10;;;7.51;65.46
43480;BME280;29067;35.492;-97.520;2023-04-25T08:57:01;97210.76;;;8.64;64.49
43480;BME280;29067;35.492;-97.520;2023-04-25T08:59:30;97212.94;;;7.05;66.91
43480;BME280;29067;35.492;-97.520;2023-04-25T09:01:58;97216.13;;;7.21;65.98
43480;BME280;29067;35.492;-97.520;2023-04-25T09:04:27;97212.54;;;7.50;65.30
43480;BME280;29067;35.492;-97.520;2023-04-25T09:06:55;97213.61;;;8.40;65.00
43480;BME280;29067;35.492;-97.520;2023-04-25T09:09:24;97211.96;;;7.86;67.75
43480;BME280;29067;35.492;-97.520;2023-04-25T09:11:54;97212.28;;;5.47;79.14
43480;BME280;29067;35.492;-97.520;2023-04-25T09:14:23;97215.52;;;5.67;78.36
43480;BME280;29067;35.492;-97.520;2023-04-25T09:17:02;97210.48;;;5.84;82.76
43480;BME280;29067;35.492;-97.520;2023-04-25T09:19:31;97213.75;;;4.93;91.17
43480;BME280;29067;35.492;-97.520;2023-04-25T09:22:00;97209.84;;;5.83;89.18
43480;BME280;29067;35.492;-97.520;2023-04-25T09:24:32;97203.99;;;6.72;84.15
43480;BME280;29067;35.492;-97.520;2023-04-25T09:27:03;97205.21;;;6.16;88.06
43480;BME280;29067;35.492;-97.520;2023-04-25T09:29:33;97205.24;;;5.50;89.41
43480;BME280;29067;35.492;-97.520;2023-04-25T09:32:19;97205.11;;;6.22;87.83
43480;BME280;29067;35.492;-97.520;2023-04-25T09:34:49;97208.43;;;5.27;92.67
43480;BME280;29067;35.492;-97.520;2023-04-25T09:37:19;97207.39;;;5.22;94.78
43480;BME280;29067;35.492;-97.520;2023-04-25T09:39:50;97209.06;;;5.50;91.88
43480;BME280;29067;35.492;-97.520;2023-04-25T09:42:21;97208.78;;;6.00;92.22
43480;BME280;29067;35.492;-97.520;2023-04-25T09:44:52;97212.62;;;5.46;94.27
43480;BME280;29067;35.492;-97.520;2023-04-25T09:47:21;97207.51;;;5.68;90.64
43480;BME280;29067;35.492;-97.520;2023-04-25T09:49:50;97208.87;;;6.64;90.54
43480;BME280;29067;35.492;-97.520;2023-04-25T09:52:20;97204.24;;;6.23;86.97
43480;BME280;29067;35.492;-97.520;2023-04-25T09:54:49;97202.74;;;5.31;92.53
43480;BME280;29067;35.492;-97.520;2023-04-25T09:57:19;97206.31;;;5.61;91.54
43480;BME280;29067;35.492;-97.520;2023-04-25T09:59:48;97210.62;;;5.39;93.33
43480;BME280;29067;35.492;-97.520;2023-04-25T10:02:18;97206.83;;;5.04;96.80
43480;BME280;29067;35.492;-97.520;2023-04-25T10:04:49;97206.21;;;5.21;96.13
43480;BME280;29067;35.492;-97.520;2023-04-25T10:07:19;97203.59;;;5.20;95.32
43480;BME280;29067;35.492;-97.520;2023-04-25T10:09:48;97201.50;;;4.52;100.00
43480;BME280;29067;35.492;-97.520;2023-04-25T10:12:17;97197.33;;;5.64;97.41
43480;BME280;29067;35.492;-97.520;2023-04-25T10:14:45;97205.38;;;4.86;97.48
43480;BME280;29067;35.492;-97.520;2023-04-25T10:17:14;97202.32;;;4.62;100.00
43480;BME280;29067;35.492;-97.520;2023-04-25T10:19:42;97211.67;;;5.78;100.00
43480;BME280;29067;35.492;-97.520;2023-04-25T10:22:16;97216.92;;;4.71;99.47
43480;BME280;29067;35.492;-97.520;2023-04-25T10:24:44;97223.95;;;3.55;100.00
43480;BME280;29067;35.492;-97.520;2023-04-25T10:27:14;97217.36;;;4.92;100.00
43480;BME280;29067;35.492;-97.520;2023-04-25T10:30:13;97209.34;;;5.36;98.11
43480;BME280;29067;35.492;-97.520;2023-04-25T10:32:47;97206.11;;;5.51;95.15
43480;BME280;29067;35.492;-97.520;2023-04-25T10:35:27;97204.56;;;5.14;98.28
43480;BME280;29067;35.492;-97.520;2023-04-25T10:38:14;97197.93;;;5.84;95.46
43480;BME280;29067;35.492;-97.520;2023-04-25T10:40:42;97206.36;;;4.34;100.00
43480;BME280;29067;35.492;-97.520;2023-04-25T10:43:38;97200.79;;;5.48;97.54
43480;BME280;29067;35.492;-97.520;2023-04-25T10:46:16;97199.82;;;4.85;94.07
43480;BME280;29067;35.492;-97.520;2023-04-25T10:48:48;97199.13;;;3.94;100.00
43480;BME280;29067;35.492;-97.520;2023-04-25T10:51:19;97199.13;;;4.21;100.00
43480;BME280;29067;35.492;-97.520;2023-04-25T10:53:57;97199.91;;;3.30;100.00
43480;BME280;29067;35.492;-97.520;2023-04-25T10:56:28;97197.83;;;3.26;100.00
43480;BME280;29067;35.492;-97.520;2023-04-25T10:59:05;97198.51;;;2.97;100.00
43480;BME280;29067;35.492;-97.520;2023-04-25T11:03:02;97189.00;;;4.45;100.00
43480;BME280;29067;35.492;-97.520;2023-04-25T11:05:33;97183.11;;;4.88;100.00
43480;BME280;29067;35.492;-97.520;2023-04-25T11:08:01;97191.49;;;3.57;100.00
43480;BME280;29067;35.492;-97.520;2023-04-25T11:10:32;97190.59;;;4.24;100.00
43480;BME280;29067;35.492;-97.520;2023-04-25T11:13:00;97203.54;;;2.81;100.00
43480;BME280;29067;35.492;-97.520;2023-04-25T11:15:28;97198.10;;;4.75;100.00
43480;BME280;29067;35.492;-97.520;2023-04-25T11:17:56;97206.22;;;4.12;100.00
43480;BME280;29067;35.492;-97.520;2023-04-25T11:20:31;97205.42;;;3.83;100.00
43480;BME280;29067;35.492;-97.520;2023-04-25T11:22:59;97206.40;;;4.41;100.00
43480;BME280;29067;35.492;-97.520;2023-04-25T11:25:27;97211.95;;;4.23;100.00
43480;BME280;29067;35.492;-97.520;2023-04-25T11:27:57;97221.28;;;2.41;100.00
43480;BME280;29067;35.492;-97.520;2023-04-25T11:30:27;97224.08;;;4.04;100.00
43480;BME280;29067;35.492;-97.520;2023-04-25T11:32:56;97223.56;;;4.23;100.00
43480;BME280;29067;35.492;-97.520;2023-04-25T11:35:26;97222.12;;;3.52;100.00
43480;BME280;29067;35.492;-97.520;2023-04-25T11:37:54;97223.41;;;4.30;100.00
43480;BME280;29067;35.492;-97.520;2023-04-25T11:40:22;97213.06;;;4.91;99.09
43480;BME280;29067;35.492;-97.520;2023-04-25T11:42:50;97218.35;;;4.32;96.98
43480;BME280;29067;35.492;-97.520;2023-04-25T11:45:19;97227.06;;;3.52;100.00
43480;BME280;29067;35.492;-97.520;2023-04-25T11:47:53;97224.36;;;4.34;97.57
43480;BME280;29067;35.492;-97.520;2023-04-25T11:50:21;97231.35;;;3.11;100.00
43480;BME280;29067;35.492;-97.520;2023-04-25T11:52:56;97226.44;;;2.79;100.00
43480;BME280;29067;35.492;-97.520;2023-04-25T11:55:24;97223.48;;;3.85;100.00
43480;BME280;29067;35.492;-97.520;2023-04-25T11:57:52;97233.19;;;3.65;100.00
43480;BME280;29067;35.492;-97.520;2023-04-25T12:00:21;97230.66;;;4.63;99.46
43480;BME280;29067;35.492;-97.520;2023-04-25T12:02:52;97234.71;;;3.79;98.49
43480;BME280;29067;35.492;-97.520;2023-04-25T12:05:23;97234.13;;;5.14;98.97
43480;BME280;29067;35.492;-97.520;2023-04-25T12:07:52;97235.94;;;3.67;100.00
43480;BME280;29067;35.492;-97.520;2023-04-25T12:10:20;97242.44;;;4.06;100.00
43480;BME280;29067;35.492;-97.520;2023-04-25T12:12:49;97246.66;;;4.09;100.00
43480;BME280;29067;35.492;-97.520;2023-04-25T12:15:22;97253.38;;;3.62;100.00
43480;BME280;29067;35.492;-97.520;2023-04-25T12:17:52;97251.50;;;3.94;100.00
43480;BME280;29067;35.492;-97.520;2023-04-25T12:20:24;97248.84;;;3.29;100.00
43480;BME280;29067;35.492;-97.520;2023-04-25T12:22:53;97246.65;;;4.91;97.43
43480;BME280;29067;35.492;-97.520;2023-04-25T12:25:37;97250.12;;;4.47;96.46
43480;BME280;29067;35.492;-97.520;2023-04-25T12:28:15;97249.52;;;4.60;92.63
43480;BME280;29067;35.492;-97.520;2023-04-25T12:31:00;97250.23;;;4.06;96.42
43480;BME280;29067;35.492;-97.520;2023-04-25T12:33:30;97254.26;;;4.93;93.81
43480;BME280;29067;35.492;-97.520;2023-04-25T12:35:59;97262.24;;;4.95;94.32
43480;BME280;29067;35.492;-97.520;2023-04-25T12:38:28;97273.19;;;3.10;99.68
43480;BME280;29067;35.492;-97.520;2023-04-25T12:40:58;97272.94;;;4.33;100.00
43480;BME280;29067;35.492;-97.520;2023-04-25T12:43:26;97273.23;;;3.84;95.34
43480;BME280;29067;35.492;-97.520;2023-04-25T12:45:56;97267.36;;;4.37;90.97
43480;BME280;29067;35.492;-97.520;2023-04-25T12:48:24;97273.17;;;3.44;100.00
43480;BME280;29067;35.492;-97.520;2023-04-25T12:50:53;97274.07;;;4.18;98.76
43480;BME280;29067;35.492;-97.520;2023-04-25T12:53:22;97276.58;;;3.14;100.00
43480;BME280;29067;35.492;-97.520;2023-04-25T12:55:51;97272.19;;;5.60;93.32
43480;BME280;29067;35.492;-97.520;2023-04-25T12:58:19;97274.60;;;5.22;94.60